Time;durP1;ratioP1;P1;durP2;ratioP2;P2;SDS_P1;SDS_P2;PMS_P1;PMS_P2;Temp;Humidity;BMP_temperature;BMP_pressure;BME280_temperature;BME280_humidity;BME280_pressure;Samples;Min_cycle;Max_cycle;Signal;HPM_P1;HPM_P2
2023/03/09 00:02:12;;;;;;;0.13;0.13;;;9.00;99.90;;;;;;5026176;28;20075;-77
2023/03/09 00:04:38;;;;;;;0.35;0.20;;;9.00;99.90;;;;;;5022754;28;20013;-76
2023/03/09 00:07:04;;;;;;;0.50;0.30;;;9.10;99.90;;;;;;5027591;28;20021;-76
2023/03/09 00:09:30;;;;;;;0.50;0.30;;;9.10;99.90;;;;;;5019449;28;20590;-76
2023/03/09 00:11:56;;;;;;;0.30;0.30;;;9.20;99.90;;;;;;5030762;28;20596;-76
2023/03/09 00:14:22;;;;;;;0.28;0.28;;;9.20;99.90;;;;;;5035272;28;20053;-77
2023/03/09 00:16:48;;;;;;;1.20;0.52;;;9.30;99.90;;;;;;5036828;28;20017;-77
2023/03/09 00:19:20;;;;;;;0.35;0.30;;;9.30;99.90;;;;;;5035574;28;20083;-76
2023/03/09 00:21:51;;;;;;;0.30;0.30;;;9.40;99.90;;;;;;5022305;28;20025;-76
2023/03/09 00:24:18;;;;;;;0.40;0.40;;;9.40;99.90;;;;;;5035120;28;20383;-77
2023/03/09 00:26:51;;;;;;;1.05;0.40;;;9.50;99.90;;;;;;5035282;28;20061;-77
2023/03/09 00:29:17;;;;;;;0.85;0.40;;;9.50;99.90;;;;;;5035438;28;20085;-77
2023/03/09 00:31:44;;;;;;;0.85;0.40;;;9.60;99.90;;;;;;5027552;28;20514;-76
2023/03/09 00:34:10;;;;;;;1.13;0.60;;;9.60;99.90;;;;;;5013786;28;20067;-77
2023/03/09 00:36:37;;;;;;;0.57;0.57;;;9.70;99.90;;;;;;5030316;28;20025;-74
2023/03/09 00:39:04;;;;;;;1.92;0.43;;;9.70;99.90;;;;;;5021427;28;20023;-76
2023/03/09 00:41:31;;;;;;;0.50;0.50;;;9.70;99.90;;;;;;5028292;28;20478;-76
2023/03/09 00:44:01;;;;;;;2.15;0.60;;;9.60;99.90;;;;;;5028254;28;20041;-74
2023/03/09 00:46:28;;;;;;;1.27;0.55;;;9.60;99.90;;;;;;5033672;28;20029;-76
2023/03/09 00:48:54;;;;;;;1.30;0.73;;;9.60;99.90;;;;;;5028531;28;20479;-77
2023/03/09 00:51:20;;;;;;;1.05;0.60;;;9.70;99.90;;;;;;5023918;28;20099;-78
2023/03/09 00:53:46;;;;;;;1.25;0.63;;;9.90;99.90;;;;;;5036947;28;20450;-78
2023/03/09 00:56:17;;;;;;;1.23;0.40;;;9.90;99.60;;;;;;5034358;28;20056;-76
2023/03/09 00:58:43;;;;;;;1.23;0.35;;;10.00;99.00;;;;;;5033983;28;20388;-76
2023/03/09 01:01:10;;;;;;;0.52;0.40;;;10.00;98.70;;;;;;5026987;28;20021;-78
2023/03/09 01:03:36;;;;;;;1.10;0.65;;;10.10;98.40;;;;;;5031563;28;20097;-77
2023/03/09 01:06:03;;;;;;;1.15;0.40;;;10.20;98.20;;;;;;5019155;28;20029;-77
2023/03/09 01:08:29;;;;;;;0.20;0.20;;;10.20;97.90;;;;;;5025229;28;20022;-76
2023/03/09 01:10:54;;;;;;;0.20;0.20;;;10.30;97.40;;;;;;5036913;28;20083;-76
2023/03/09 01:13:20;;;;;;;0.40;0.10;;;10.40;97.00;;;;;;5037666;28;20037;-77
2023/03/09 01:15:47;;;;;;;0.40;0.40;;;10.50;96.70;;;;;;5051921;28;20033;-76
2023/03/09 01:18:12;;;;;;;0.43;0.30;;;10.50;96.50;;;;;;5040023;28;20026;-77
2023/03/09 01:20:38;;;;;;;0.20;0.20;;;10.50;96.20;;;;;;5037288;28;20122;-78
2023/03/09 01:23:04;;;;;;;1.33;0.30;;;10.50;96.00;;;;;;5028180;28;20022;-77
2023/03/09 01:25:30;;;;;;;0.70;0.30;;;10.40;95.80;;;;;;5023934;28;20026;-76
2023/03/09 01:27:55;;;;;;;0.55;0.30;;;10.40;95.70;;;;;;5027864;28;20465;-75
2023/03/09 01:30:21;;;;;;;0.20;0.20;;;10.30;95.60;;;;;;5022119;28;20034;-75
2023/03/09 01:32:47;;;;;;;1.05;0.30;;;10.20;95.50;;;;;;5032216;28;20021;-76
2023/03/09 01:35:13;;;;;;;0.47;0.10;;;10.20;95.50;;;;;;5028806;28;20038;-76
2023/03/09 01:37:38;;;;;;;0.32;0.30;;;10.20;95.50;;;;;;5018572;28;20057;-76
2023/03/09 01:40:06;;;;;;;1.48;0.20;;;10.20;95.40;;;;;;5029363;28;20037;-76
2023/03/09 01:42:33;;;;;;;0.08;0.08;;;10.30;95.40;;;;;;5025858;28;20028;-76
2023/03/09 01:45:17;;;;;;;0.52;0.20;;;10.40;95.20;;;;;;5034133;28;20506;-78
2023/03/09 01:47:44;;;;;;;0.28;0.13;;;10.50;94.90;;;;;;5028058;28;20052;-77
2023/03/09 01:50:11;;;;;;;0.20;0.20;;;10.60;94.60;;;;;;5034341;28;20119;-77
2023/03/09 01:52:37;;;;;;;0.40;0.20;;;10.60;94.20;;;;;;5028886;28;20037;-77
2023/03/09 01:55:14;;;;;;;1.83;0.20;;;10.70;94.00;;;;;;5026850;28;20014;-75
2023/03/09 01:57:46;;;;;;;0.73;0.20;;;10.70;93.70;;;;;;5028585;28;20044;-77
2023/03/09 02:00:13;;;;;;;0.20;0.10;;;10.80;93.20;;;;;;5031499;28;20482;-77
2023/03/09 02:02:41;;;;;;;0.20;0.20;;;10.80;92.90;;;;;;5033402;28;20494;-77
2023/03/09 02:05:12;;;;;;;0.17;0.10;;;10.70;92.90;;;;;;5026623;28;20030;-76
2023/03/09 02:07:42;;;;;;;0.20;0.20;;;10.70;92.90;;;;;;5025205;28;20030;-77
2023/03/09 02:10:17;;;;;;;0.43;0.20;;;10.60;92.90;;;;;;5005650;28;20122;-76
2023/03/09 02:12:47;;;;;;;0.10;0.10;;;10.60;92.90;;;;;;5005541;28;20024;-76
2023/03/09 02:15:13;;;;;;;0.98;0.10;;;10.60;92.80;;;;;;5033789;28;20403;-76
2023/03/09 02:17:38;;;;;;;0.20;0.20;;;10.70;92.70;;;;;;5034214;28;20133;-77
2023/03/09 02:20:55;;;;;;;0.38;0.10;;;10.80;92.40;;;;;;5034595;28;20049;-77
2023/03/09 02:23:48;;;;;;;0.00;0.00;;;10.90;92.30;;;;;;4964976;28;20035;-76
2023/03/09 02:26:16;;;;;;;0.20;0.10;;;10.90;92.30;;;;;;4958119;28;20078;-76
2023/03/09 02:28:41;;;;;;;0.47;0.10;;;10.90;92.20;;;;;;5006465;23;20057;-76
2023/03/09 02:31:08;;;;;;;0.05;0.00;;;10.90;92.30;;;;;;5020333;28;20026;-75
2023/03/09 02:33:34;;;;;;;0.10;0.10;;;10.90;92.30;;;;;;5038608;28;20096;-76
2023/03/09 02:36:00;;;;;;;0.47;0.20;;;10.90;92.30;;;;;;5025707;28;20049;-75
2023/03/09 02:38:26;;;;;;;0.30;0.00;;;10.90;93.20;;;;;;5016549;28;20093;-76
2023/03/09 02:40:55;;;;;;;0.10;0.10;;;10.80;93.90;;;;;;5016878;28;20067;-77
2023/03/09 02:43:26;;;;;;;0.35;0.10;;;10.60;94.20;;;;;;5016676;28;20108;-77
2023/03/09 02:45:52;;;;;;;0.57;0.20;;;10.50;94.50;;;;;;5016803;28;20096;-76
2023/03/09 02:48:18;;;;;;;0.10;0.10;;;10.50;95.00;;;;;;5016751;28;20041;-76
2023/03/09 02:50:43;;;;;;;0.20;0.20;;;10.40;96.00;;;;;;5015456;28;20049;-76
2023/03/09 02:53:10;;;;;;;0.38;0.38;;;10.30;96.80;;;;;;5018247;28;20538;-77
2023/03/09 02:55:36;;;;;;;2.28;0.22;;;10.20;98.40;;;;;;5016709;28;20025;-76
2023/03/09 02:58:02;;;;;;;0.63;0.20;;;10.00;99.20;;;;;;5016766;28;20117;-76
2023/03/09 03:00:27;;;;;;;0.80;0.30;;;9.50;99.90;;;;;;5016381;28;20065;-76
2023/03/09 03:02:53;;;;;;;1.92;0.30;;;9.10;99.90;;;;;;5025895;28;20046;-76
2023/03/09 03:05:19;;;;;;;0.93;0.30;;;8.80;99.90;;;;;;5029085;28;20405;-76
2023/03/09 03:07:44;;;;;;;2.60;0.28;;;8.50;99.90;;;;;;5019092;28;20506;-75
2023/03/09 03:10:12;;;;;;;1.55;0.30;;;8.40;99.90;;;;;;5032729;28;20017;-76
2023/03/09 03:12:38;;;;;;;1.25;0.30;;;8.20;99.90;;;;;;5020688;28;20137;-76
2023/03/09 03:15:05;;;;;;;0.50;0.20;;;8.10;99.90;;;;;;5028428;28;20064;-75
2023/03/09 03:17:31;;;;;;;0.85;0.10;;;8.00;99.90;;;;;;5027631;28;20022;-76
2023/03/09 03:19:56;;;;;;;0.60;0.25;;;7.90;99.90;;;;;;5016409;28;20501;-75
2023/03/09 03:22:22;;;;;;;0.88;0.30;;;7.90;99.90;;;;;;5016045;28;20026;-76
2023/03/09 03:24:48;;;;;;;1.17;0.20;;;7.80;99.90;;;;;;5016008;28;20045;-76
2023/03/09 03:27:13;;;;;;;0.52;0.20;;;7.80;99.90;;;;;;5016243;28;20041;-76
2023/03/09 03:29:39;;;;;;;0.30;0.20;;;7.80;99.90;;;;;;5014945;28;20041;-76
2023/03/09 03:32:05;;;;;;;2.33;0.20;;;7.90;99.90;;;;;;5025634;28;20029;-75
2023/03/09 03:34:31;;;;;;;0.68;0.30;;;7.90;99.90;;;;;;5027059;28;20030;-75
2023/03/09 03:36:56;;;;;;;0.20;0.13;;;7.90;99.90;;;;;;5016327;28;20040;-75
2023/03/09 03:39:22;;;;;;;0.20;0.10;;;7.90;99.90;;;;;;5016294;28;20037;-75
2023/03/09 03:41:48;;;;;;;0.20;0.20;;;7.90;99.90;;;;;;5016574;28;20040;-76
2023/03/09 03:44:14;;;;;;;0.10;0.10;;;7.90;99.90;;;;;;5032058;28;20101;-76
2023/03/09 03:46:39;;;;;;;0.40;0.20;;;7.90;99.90;;;;;;5015757;28;20525;-77
2023/03/09 03:49:05;;;;;;;0.47;0.28;;;8.00;99.90;;;;;;5016158;28;20022;-76
2023/03/09 03:51:31;;;;;;;1.40;0.20;;;8.00;99.90;;;;;;5027178;28;20033;-76
2023/03/09 03:53:57;;;;;;;0.70;0.30;;;8.10;99.90;;;;;;5020792;28;20118;-76
2023/03/09 03:56:22;;;;;;;0.68;0.47;;;8.10;99.90;;;;;;5016400;28;20022;-75
2023/03/09 03:58:48;;;;;;;1.15;0.20;;;8.20;99.90;;;;;;5017212;28;20076;-76
2023/03/09 04:01:14;;;;;;;2.72;0.60;;;8.20;99.90;;;;;;5020868;28;20029;-76
2023/03/09 04:03:39;;;;;;;1.50;0.40;;;8.30;99.90;;;;;;5027113;28;20021;-78
2023/03/09 04:06:05;;;;;;;0.20;0.20;;;8.30;99.90;;;;;;5026630;28;20473;-77
2023/03/09 04:08:31;;;;;;;0.20;0.20;;;8.30;99.90;;;;;;5015256;28;20441;-75
2023/03/09 04:10:58;;;;;;;4.07;0.22;;;8.40;99.90;;;;;;5013877;28;20034;-76
2023/03/09 04:13:24;;;;;;;1.15;0.35;;;8.40;99.90;;;;;;5015746;28;20056;-76
2023/03/09 04:15:49;;;;;;;2.67;0.20;;;8.40;99.90;;;;;;5030446;28;20080;-76
2023/03/09 04:18:15;;;;;;;0.65;0.35;;;8.50;99.90;;;;;;5016504;28;20022;-76
2023/03/09 04:20:43;;;;;;;0.10;0.10;;;8.40;99.90;;;;;;5016259;28;20017;-76
2023/03/09 04:23:10;;;;;;;0.90;0.20;;;8.40;99.90;;;;;;5016130;28;20022;-76
2023/03/09 04:25:36;;;;;;;0.30;0.20;;;8.40;99.90;;;;;;5015602;28;20453;-76
2023/03/09 04:28:02;;;;;;;0.38;0.30;;;8.40;99.90;;;;;;5015421;28;20033;-75
2023/03/09 04:30:28;;;;;;;1.92;0.25;;;8.50;99.90;;;;;;5016028;28;20040;-76
2023/03/09 04:32:54;;;;;;;0.85;0.30;;;8.60;99.90;;;;;;5025602;28;20156;-77
2023/03/09 04:35:20;;;;;;;0.45;0.30;;;8.60;99.90;;;;;;5027725;28;20290;-76
2023/03/09 04:37:45;;;;;;;1.02;0.45;;;8.60;99.90;;;;;;5017797;28;20109;-76
2023/03/09 04:40:12;;;;;;;0.20;0.20;;;8.60;99.90;;;;;;5017766;28;20111;-76
2023/03/09 04:42:37;;;;;;;0.60;0.30;;;8.60;99.90;;;;;;5014084;28;20029;-76
2023/03/09 04:45:04;;;;;;;1.20;0.17;;;8.60;99.90;;;;;;5022163;28;20103;-76
2023/03/09 04:47:30;;;;;;;0.47;0.20;;;8.60;99.90;;;;;;5013536;28;20026;-76
2023/03/09 04:49:56;;;;;;;0.45;0.25;;;8.60;99.90;;;;;;5017791;28;20033;-75
2023/03/09 04:52:22;;;;;;;0.80;0.35;;;8.50;99.90;;;;;;5016415;28;20078;-76
2023/03/09 04:54:48;;;;;;;0.90;0.30;;;8.50;99.90;;;;;;5015533;28;20095;-75
2023/03/09 04:57:14;;;;;;;1.83;0.40;;;8.50;99.90;;;;;;5017432;28;20383;-75
2023/03/09 04:59:40;;;;;;;2.15;0.30;;;8.50;99.90;;;;;;5014384;28;20146;-74
2023/03/09 05:02:06;;;;;;;1.35;0.25;;;8.50;99.90;;;;;;5021202;28;20049;-73
2023/03/09 05:04:32;;;;;;;0.25;0.20;;;8.60;99.90;;;;;;5027683;28;20037;-75
2023/03/09 05:06:58;;;;;;;0.25;0.20;;;8.60;99.90;;;;;;5015464;28;20459;-75
2023/03/09 05:09:25;;;;;;;2.03;0.30;;;8.70;99.90;;;;;;5013644;28;20033;-75
2023/03/09 05:11:51;;;;;;;1.55;0.30;;;8.70;99.90;;;;;;5016954;28;20021;-74
2023/03/09 05:14:18;;;;;;;2.22;1.42;;;8.60;99.90;;;;;;5014705;28;20037;-74
2023/03/09 05:16:44;;;;;;;3.20;0.30;;;8.50;99.90;;;;;;5014345;28;20022;-76
2023/03/09 05:19:11;;;;;;;0.80;0.22;;;8.40;99.90;;;;;;5014424;28;20022;-77
2023/03/09 05:21:37;;;;;;;0.65;0.20;;;8.30;99.90;;;;;;5015320;28;20161;-76
2023/03/09 05:24:04;;;;;;;0.60;0.32;;;8.20;99.90;;;;;;5013754;28;20076;-77
2023/03/09 05:26:29;;;;;;;0.73;0.15;;;8.10;99.90;;;;;;5013214;28;20022;-77
2023/03/09 05:28:55;;;;;;;0.35;0.28;;;8.10;99.90;;;;;;5013929;28;20121;-77
2023/03/09 05:31:21;;;;;;;0.30;0.20;;;8.10;99.90;;;;;;5020473;28;20055;-76
2023/03/09 05:33:46;;;;;;;0.47;0.20;;;8.10;99.90;;;;;;5015516;28;20509;-76
2023/03/09 05:36:18;;;;;;;0.22;0.22;;;8.20;99.90;;;;;;5014502;28;20046;-76
2023/03/09 05:38:44;;;;;;;0.45;0.35;;;8.20;99.90;;;;;;5017844;28;20489;-77
2023/03/09 05:41:10;;;;;;;1.25;0.30;;;8.20;99.90;;;;;;5014732;28;20030;-76
2023/03/09 05:43:36;;;;;;;0.98;0.30;;;8.20;99.90;;;;;;5014171;28;20213;-76
2023/03/09 05:46:02;;;;;;;0.20;0.20;;;8.20;99.90;;;;;;5013440;28;20158;-76
2023/03/09 05:48:27;;;;;;;6.72;0.30;;;8.10;99.90;;;;;;5014973;28;20414;-75
2023/03/09 05:50:53;;;;;;;0.13;0.13;;;8.10;99.90;;;;;;5013697;28;20029;-78
2023/03/09 05:53:19;;;;;;;0.88;0.30;;;8.10;99.90;;;;;;5014675;28;20104;-76
2023/03/09 05:55:49;;;;;;;0.45;0.30;;;8.00;99.90;;;;;;5013659;28;20029;-76
2023/03/09 05:58:15;;;;;;;0.20;0.20;;;8.00;99.90;;;;;;5013486;28;20061;-77
2023/03/09 06:00:41;;;;;;;0.68;0.20;;;7.90;99.90;;;;;;5017578;28;20076;-76
2023/03/09 06:03:07;;;;;;;0.10;0.10;;;7.90;99.90;;;;;;5025476;28;20104;-77
2023/03/09 06:05:32;;;;;;;2.60;0.40;;;7.90;99.90;;;;;;5016117;28;20072;-77
2023/03/09 06:07:58;;;;;;;0.68;0.10;;;7.90;99.90;;;;;;5017468;28;20029;-76
2023/03/09 06:10:24;;;;;;;0.10;0.10;;;7.90;99.90;;;;;;5015344;28;20045;-77
2023/03/09 06:12:50;;;;;;;0.20;0.20;;;7.90;99.90;;;;;;5017133;28;20030;-76
2023/03/09 06:15:18;;;;;;;0.50;0.20;;;7.90;99.90;;;;;;5016949;28;20025;-76
2023/03/09 06:17:44;;;;;;;0.50;0.10;;;7.80;99.90;;;;;;5016990;28;20022;-77
2023/03/09 06:20:10;;;;;;;0.08;0.00;;;7.90;99.90;;;;;;5017074;28;20348;-76
2023/03/09 06:22:36;;;;;;;0.10;0.10;;;7.90;99.90;;;;;;5017737;28;20030;-77
2023/03/09 06:25:02;;;;;;;3.20;0.25;;;7.80;99.90;;;;;;5016894;28;20041;-77
2023/03/09 06:27:28;;;;;;;1.33;0.20;;;7.80;99.90;;;;;;5025252;28;20040;-76
2023/03/09 06:29:54;;;;;;;0.40;0.25;;;7.90;99.90;;;;;;5015135;28;20026;-75
2023/03/09 06:32:20;;;;;;;0.55;0.20;;;7.90;99.90;;;;;;5018601;28;20022;-77
2023/03/09 06:34:46;;;;;;;0.57;0.22;;;7.90;99.90;;;;;;5026177;28;20402;-76
2023/03/09 06:37:11;;;;;;;0.15;0.10;;;8.00;99.90;;;;;;5016750;28;20030;-77
2023/03/09 06:39:37;;;;;;;0.40;0.20;;;8.00;99.90;;;;;;5018043;28;20045;-77
2023/03/09 06:42:03;;;;;;;0.38;0.10;;;8.00;99.90;;;;;;5021134;28;20034;-77
2023/03/09 06:44:29;;;;;;;0.40;0.13;;;8.00;99.90;;;;;;5017152;28;20091;-77
2023/03/09 06:46:55;;;;;;;1.25;0.50;;;8.10;99.90;;;;;;5017421;28;20030;-77
2023/03/09 06:49:20;;;;;;;2.65;0.22;;;8.10;99.90;;;;;;5018563;28;20097;-77
2023/03/09 06:51:46;;;;;;;0.30;0.17;;;8.20;99.90;;;;;;5019548;28;20026;-78
2023/03/09 06:54:14;;;;;;;1.58;0.25;;;8.20;99.90;;;;;;5018778;28;20081;-75
2023/03/09 06:56:40;;;;;;;1.08;0.20;;;8.30;99.90;;;;;;5017726;28;20026;-75
2023/03/09 06:59:05;;;;;;;0.20;0.20;;;8.30;99.90;;;;;;5015963;28;20022;-75
2023/03/09 07:01:31;;;;;;;0.52;0.30;;;8.30;99.90;;;;;;5014087;28;20077;-76
2023/03/09 07:03:57;;;;;;;1.02;0.13;;;8.30;99.90;;;;;;5020893;28;20107;-76
2023/03/09 07:06:23;;;;;;;0.13;0.13;;;8.30;99.90;;;;;;5015186;28;20066;-75
2023/03/09 07:08:48;;;;;;;0.35;0.20;;;8.30;99.90;;;;;;5016248;28;20018;-75
2023/03/09 07:11:14;;;;;;;1.25;0.40;;;8.40;99.90;;;;;;5014966;28;20022;-75
2023/03/09 07:13:40;;;;;;;1.42;0.30;;;8.50;99.90;;;;;;5015851;28;20470;-76
2023/03/09 07:16:06;;;;;;;2.10;0.52;;;8.60;99.90;;;;;;5015649;28;20025;-75
2023/03/09 07:18:32;;;;;;;0.88;0.17;;;8.70;99.90;;;;;;5015045;28;20026;-75
2023/03/09 07:21:00;;;;;;;0.43;0.30;;;8.80;99.90;;;;;;5016426;28;20156;-75
2023/03/09 07:23:27;;;;;;;0.22;0.15;;;8.90;99.90;;;;;;5013749;28;20034;-75
2023/03/09 07:25:53;;;;;;;0.73;0.22;;;8.90;99.90;;;;;;5015502;28;20056;-75
2023/03/09 07:28:18;;;;;;;0.85;0.30;;;8.90;99.90;;;;;;5016423;28;20490;-76
2023/03/09 07:30:44;;;;;;;1.45;0.17;;;8.90;99.90;;;;;;5017178;28;20448;-75
2023/03/09 07:33:10;;;;;;;1.30;0.30;;;8.90;99.90;;;;;;5025521;28;20032;-75
2023/03/09 07:35:39;;;;;;;0.43;0.15;;;8.80;99.90;;;;;;5018199;28;20033;-75
2023/03/09 07:38:05;;;;;;;1.58;0.15;;;8.80;99.90;;;;;;5016799;28;20129;-76
2023/03/09 07:40:30;;;;;;;0.60;0.20;;;8.70;99.90;;;;;;5015028;28;20436;-75
2023/03/09 07:42:56;;;;;;;1.73;0.28;;;8.70;99.90;;;;;;5015285;28;20510;-75
2023/03/09 07:45:22;;;;;;;0.55;0.30;;;8.70;99.90;;;;;;5015494;28;20025;-75
2023/03/09 07:47:49;;;;;;;0.68;0.30;;;8.80;99.90;;;;;;5014636;28;20038;-75
2023/03/09 07:50:15;;;;;;;0.45;0.35;;;9.00;99.90;;;;;;5015576;28;20041;-75
2023/03/09 07:52:42;;;;;;;0.82;0.30;;;9.10;99.90;;;;;;5017504;28;20076;-75
2023/03/09 07:55:10;;;;;;;1.27;0.68;;;9.30;99.90;;;;;;5014295;28;20034;-75
2023/03/09 07:57:36;;;;;;;1.00;0.30;;;9.50;99.90;;;;;;5014813;28;20093;-75
2023/03/09 08:00:06;;;;;;;0.20;0.20;;;9.70;99.90;;;;;;5016293;28;20061;-76
2023/03/09 08:02:31;;;;;;;0.10;0.10;;;9.90;99.90;;;;;;5022912;28;20110;-75
2023/03/09 08:04:57;;;;;;;0.68;0.20;;;10.10;99.90;;;;;;5021628;28;20454;-76
2023/03/09 08:07:23;;;;;;;0.52;0.13;;;10.30;99.90;;;;;;5016039;28;20029;-75
2023/03/09 08:09:48;;;;;;;1.00;0.35;;;10.30;99.90;;;;;;5015958;28;20053;-76
2023/03/09 08:12:14;;;;;;;0.88;0.47;;;10.40;99.90;;;;;;5017315;28;20128;-75
2023/03/09 08:14:39;;;;;;;1.05;0.30;;;10.60;99.90;;;;;;5017352;28;20535;-75
2023/03/09 08:17:05;;;;;;;0.73;0.30;;;10.70;99.90;;;;;;5015814;28;20100;-75
2023/03/09 08:19:31;;;;;;;0.57;0.30;;;10.80;99.90;;;;;;5016219;28;20078;-75
2023/03/09 08:21:57;;;;;;;2.10;0.70;;;11.00;99.90;;;;;;5016407;28;20065;-76
2023/03/09 08:24:22;;;;;;;0.93;0.38;;;11.10;99.80;;;;;;5014448;28;20029;-75
2023/03/09 08:26:49;;;;;;;0.45;0.32;;;11.20;99.50;;;;;;5013998;28;20132;-76
2023/03/09 08:29:14;;;;;;;1.73;0.45;;;11.30;99.00;;;;;;5015501;28;20121;-76
2023/03/09 08:31:40;;;;;;;1.38;0.40;;;11.50;97.90;;;;;;5023534;28;20493;-75
2023/03/09 08:34:07;;;;;;;0.90;0.45;;;11.60;97.20;;;;;;5016737;28;20029;-75
2023/03/09 08:36:33;;;;;;;0.52;0.40;;;11.70;97.00;;;;;;5031555;23;20046;-77
2023/03/09 08:38:58;;;;;;;1.92;0.50;;;11.80;96.70;;;;;;5025433;28;20030;-78
2023/03/09 08:41:24;;;;;;;1.13;0.50;;;11.80;95.80;;;;;;5037439;28;20035;-78
2023/03/09 08:43:50;;;;;;;1.00;0.38;;;11.70;95.60;;;;;;5038967;28;20036;-78
2023/03/09 08:46:16;;;;;;;0.63;0.20;;;11.60;95.50;;;;;;5034926;28;20060;-78
2023/03/09 08:48:42;;;;;;;1.58;0.57;;;11.50;95.60;;;;;;5035957;28;20033;-78
2023/03/09 08:51:10;;;;;;;1.35;0.40;;;11.50;95.70;;;;;;5031011;28;20018;-78
2023/03/09 08:53:37;;;;;;;2.00;0.65;;;11.50;95.60;;;;;;5034801;28;20027;-77
2023/03/09 08:56:08;;;;;;;0.88;0.47;;;11.70;95.50;;;;;;5023832;28;20022;-77
2023/03/09 08:58:35;;;;;;;0.95;0.52;;;11.90;94.40;;;;;;4998138;28;20441;-78
2023/03/09 09:01:05;;;;;;;1.45;0.70;;;12.30;94.20;;;;;;5027850;28;20025;-78
2023/03/09 09:03:31;;;;;;;2.88;0.82;;;12.60;93.00;;;;;;5050104;28;20021;-78
2023/03/09 09:06:03;;;;;;;2.80;1.20;;;12.70;92.30;;;;;;5044186;28;20037;-78
2023/03/09 09:08:29;;;;;;;2.25;0.50;;;12.80;91.30;;;;;;5032704;28;20038;-76
2023/03/09 09:10:56;;;;;;;0.98;0.40;;;12.80;90.50;;;;;;5036281;28;20068;-79
2023/03/09 09:13:22;;;;;;;3.95;0.90;;;12.90;90.80;;;;;;5009747;28;20034;-77
2023/03/09 09:15:55;;;;;;;1.75;0.82;;;12.90;90.00;;;;;;5018725;28;20032;-77
2023/03/09 09:18:21;;;;;;;1.80;0.88;;;12.80;90.10;;;;;;5010530;28;20022;-78
2023/03/09 09:20:47;;;;;;;2.20;0.88;;;12.90;90.40;;;;;;5028024;28;20030;-77
2023/03/09 09:23:13;;;;;;;0.88;0.60;;;13.40;90.00;;;;;;5026428;28;20049;-78
2023/03/09 09:25:39;;;;;;;0.63;0.40;;;14.00;86.20;;;;;;5029683;28;20120;-77
2023/03/09 09:28:05;;;;;;;2.95;1.48;;;14.40;84.70;;;;;;5016147;28;20430;-78
2023/03/09 09:30:32;;;;;;;2.42;1.30;;;14.50;80.80;;;;;;5017555;28;20030;-78
2023/03/09 09:32:59;;;;;;;5.60;1.95;;;14.30;81.10;;;;;;5035574;28;20454;-77
2023/03/09 09:35:26;;;;;;;4.07;1.90;;;14.10;80.00;;;;;;5030344;28;20029;-78
2023/03/09 09:37:54;;;;;;;3.28;1.58;;;13.80;79.80;;;;;;4999499;28;20104;-79
2023/03/09 09:40:23;;;;;;;3.05;1.08;;;13.50;81.60;;;;;;5018356;28;20022;-77
2023/03/09 09:43:28;;;;;;;6.72;1.63;;;13.40;82.70;;;;;;5002395;28;20034;-82
2023/03/09 09:46:01;;;;;;;3.30;0.90;;;13.50;82.80;;;;;;5015077;28;20030;-78
2023/03/09 09:48:28;;;;;;;3.22;0.98;;;13.80;80.00;;;;;;4995825;28;20038;-79
2023/03/09 09:51:12;;;;;;;3.63;0.75;;;13.90;79.20;;;;;;5013433;28;20387;-77
2023/03/09 09:54:03;;;;;;;3.33;0.70;;;13.90;78.60;;;;;;5001090;28;20048;-78
2023/03/09 09:56:41;;;;;;;4.40;0.60;;;14.00;77.40;;;;;;5020937;28;20033;-78
2023/03/09 09:59:18;;;;;;;2.15;0.85;;;14.00;76.20;;;;;;5046624;28;20104;-77
2023/03/09 10:02:09;;;;;;;5.85;1.13;;;14.20;76.00;;;;;;5020656;28;20026;-78
2023/03/09 10:05:01;;;;;;;3.17;0.60;;;14.40;75.10;;;;;;5034005;28;20030;-78
2023/03/09 10:07:28;;;;;;;3.13;0.80;;;14.50;73.50;;;;;;5036467;28;20071;-79
2023/03/09 10:10:06;;;;;;;2.20;0.68;;;14.30;72.70;;;;;;5031532;28;20519;-77
2023/03/09 10:12:32;;;;;;;1.10;0.57;;;14.00;73.90;;;;;;5007332;28;20037;-79
2023/03/09 10:15:14;;;;;;;2.55;0.88;;;13.80;74.20;;;;;;5026650;28;20382;-77
2023/03/09 10:17:46;;;;;;;1.83;0.40;;;13.80;74.80;;;;;;5040488;28;20018;-78
2023/03/09 10:20:23;;;;;;;1.05;0.60;;;13.60;74.30;;;;;;5025336;28;20033;-78
2023/03/09 10:22:52;;;;;;;0.80;0.50;;;13.50;74.80;;;;;;5014537;28;20049;-77
2023/03/09 10:25:21;;;;;;;1.70;0.63;;;13.50;75.60;;;;;;5038652;28;20022;-77
2023/03/09 10:27:58;;;;;;;0.88;0.60;;;13.60;75.10;;;;;;5020763;28;20390;-78
2023/03/09 10:30:47;;;;;;;0.85;0.60;;;13.60;75.30;;;;;;5027775;28;20120;-78
2023/03/09 10:33:45;;;;;;;1.38;0.30;;;13.70;75.10;;;;;;5031114;28;20030;-78
2023/03/09 10:36:21;;;;;;;2.65;0.40;;;13.70;74.30;;;;;;5034490;28;20024;-77
2023/03/09 10:38:48;;;;;;;2.03;0.45;;;13.60;73.90;;;;;;5035472;28;20040;-80
2023/03/09 10:41:19;;;;;;;2.03;0.30;;;13.50;74.30;;;;;;5019739;28;20037;-78
2023/03/09 10:43:46;;;;;;;0.70;0.40;;;13.40;75.10;;;;;;5023278;28;20030;-80
2023/03/09 10:46:16;;;;;;;2.38;0.50;;;13.50;75.40;;;;;;5025800;28;20260;-78
2023/03/09 10:48:44;;;;;;;4.97;0.85;;;13.60;75.50;;;;;;5025778;28;20032;-77
2023/03/09 10:51:54;;;;;;;0.98;0.40;;;13.70;74.20;;;;;;5048120;28;20036;-78
2023/03/09 10:54:25;;;;;;;2.45;0.70;;;13.70;71.60;;;;;;5026991;28;20034;-77
2023/03/09 10:56:54;;;;;;;1.13;0.60;;;13.60;72.90;;;;;;5047077;28;20013;-79
2023/03/09 10:59:28;;;;;;;1.58;0.50;;;13.70;72.60;;;;;;5046714;28;20056;-79
2023/03/09 11:01:59;;;;;;;1.35;0.47;;;13.60;71.60;;;;;;5031403;28;20089;-80
2023/03/09 11:04:26;;;;;;;3.17;0.83;;;13.50;71.40;;;;;;5014934;28;20030;-78
2023/03/09 11:07:22;;;;;;;4.40;0.60;;;13.40;70.50;;;;;;5028690;28;20093;-78
2023/03/09 11:09:49;;;;;;;2.28;0.60;;;13.50;69.70;;;;;;5023769;28;20037;-78
2023/03/09 11:12:33;;;;;;;6.53;0.88;;;13.50;69.00;;;;;;5024924;28;20037;-77
2023/03/09 11:15:40;;;;;;;0.68;0.43;;;13.60;68.20;;;;;;5024723;28;20506;-78
2023/03/09 11:18:27;;;;;;;1.17;0.60;;;13.80;67.00;;;;;;5011277;28;20045;-77
2023/03/09 11:20:54;;;;;;;4.57;1.08;;;14.00;67.20;;;;;;5019468;28;20040;-78
2023/03/09 11:23:26;;;;;;;1.63;0.60;;;13.90;65.90;;;;;;5030558;28;20096;-78
2023/03/09 11:26:04;;;;;;;1.80;0.60;;;13.70;66.30;;;;;;5002403;28;20025;-78
2023/03/09 11:28:48;;;;;;;4.50;0.63;;;13.70;66.40;;;;;;5017655;28;20040;-78
2023/03/09 11:31:17;;;;;;;1.27;0.57;;;13.70;66.90;;;;;;5023367;28;20037;-79
2023/03/09 11:33:44;;;;;;;2.47;0.70;;;13.80;66.70;;;;;;5019587;28;20102;-78
2023/03/09 11:36:16;;;;;;;1.60;0.65;;;13.80;66.80;;;;;;5035719;28;20029;-77
2023/03/09 11:38:43;;;;;;;;;;;14.00;66.70;;;;;;5038830;28;20022;-78
2023/03/09 11:41:21;;;;;;;2.33;0.77;;;14.10;65.60;;;;;;5038343;28;19908;-77
2023/03/09 11:43:53;;;;;;;2.40;0.80;;;14.30;64.50;;;;;;5037921;28;20113;-78
2023/03/09 11:46:21;;;;;;;4.18;1.23;;;14.40;64.70;;;;;;5010110;28;20083;-78
2023/03/09 11:49:11;;;;;;;2.42;0.60;;;14.40;63.90;;;;;;5038456;28;20113;-78
2023/03/09 11:51:45;;;;;;;2.10;0.98;;;14.40;63.90;;;;;;5034414;28;20091;-79
2023/03/09 11:54:32;;;;;;;1.55;0.77;;;14.50;63.60;;;;;;5035239;28;20090;-79
2023/03/09 11:57:02;;;;;;;1.13;0.65;;;14.30;62.70;;;;;;5000171;28;20089;-77
2023/03/09 12:00:05;;;;;;;1.92;0.65;;;14.10;63.40;;;;;;5034021;28;20022;-78
2023/03/09 12:02:50;;;;;;;;;;;14.20;63.80;;;;;;5033514;28;20081;-77
2023/03/09 12:05:16;;;;;;;3.25;0.80;;;14.50;63.30;;;;;;5045294;28;19905;-77
2023/03/09 12:08:03;;;;;;;1.95;0.80;;;14.60;62.30;;;;;;5032930;28;20021;-77
2023/03/09 12:11:11;;;;;;;2.45;0.88;;;14.60;62.60;;;;;;5045522;28;20025;-79
2023/03/09 12:13:48;;;;;;;2.35;0.90;;;;;;;;;;5002726;28;20053;-77
2023/03/09 12:16:21;;;;;;;2.13;0.93;;;14.80;60.70;;;;;;5005728;28;20026;-78
2023/03/09 12:19:18;;;;;;;2.53;0.82;;;14.90;60.40;;;;;;5039120;28;20125;-79
2023/03/09 12:21:50;;;;;;;2.83;0.55;;;15.10;59.80;;;;;;5020625;28;20125;-78
2023/03/09 12:24:22;;;;;;;2.25;0.60;;;15.10;59.80;;;;;;5035622;28;20064;-78
2023/03/09 12:27:23;;;;;;;1.63;0.85;;;15.20;60.00;;;;;;5032605;28;20044;-78
2023/03/09 12:29:51;;;;;;;2.40;0.70;;;15.40;59.80;;;;;;5024518;28;20040;-79
2023/03/09 12:32:39;;;;;;;1.88;0.90;;;15.60;59.10;;;;;;5028409;28;20101;-78
2023/03/09 12:35:10;;;;;;;3.85;1.30;;;15.70;59.10;;;;;;4996489;28;20475;-78
2023/03/09 12:37:35;;;;;;;4.40;0.93;;;15.70;58.50;;;;;;5025263;28;20088;-78
2023/03/09 12:40:16;;;;;;;1.48;0.50;;;15.70;57.90;;;;;;5034615;28;20037;-78
2023/03/09 12:42:45;;;;;;;1.00;0.73;;;15.80;57.80;;;;;;5036868;28;20377;-77
2023/03/09 12:45:11;;;;;;;4.63;0.90;;;15.80;57.50;;;;;;5018558;28;20025;-79
2023/03/09 12:47:56;;;;;;;2.10;0.57;;;15.90;58.20;;;;;;5022167;28;20395;-78
2023/03/09 12:50:23;;;;;;;2.08;0.57;;;16.00;58.50;;;;;;5026827;28;20305;-78
2023/03/09 12:53:01;;;;;;;2.50;0.60;;;16.10;57.50;;;;;;5028631;28;20052;-78
2023/03/09 12:55:53;;;;;;;2.67;0.98;;;16.10;56.20;;;;;;5036462;28;20025;-77
2023/03/09 12:58:21;;;;;;;5.05;0.80;;;16.10;56.30;;;;;;5008887;28;20029;-79
2023/03/09 13:01:18;;;;;;;1.27;0.60;;;16.10;56.50;;;;;;5021029;28;20424;-77
2023/03/09 13:04:00;;;;;;;2.65;0.95;;;15.90;55.70;;;;;;5032639;28;20029;-79
2023/03/09 13:06:51;;;;;;;2.45;1.05;;;15.70;55.80;;;;;;5037613;28;20493;-77